sensor_id;sensor_type;location;lat;lon;timestamp;pressure;altitude;pressure_sealevel;temperature;humidity
69402;BME280;56589;51.992;5.924;2024-03-08T00:00:48;101331.91;;;2.30;78.11
69402;BME280;56589;51.992;5.924;2024-03-08T00:03:14;101335.44;;;2.27;78.31
69402;BME280;56589;51.992;5.924;2024-03-08T00:05:39;101332.84;;;2.27;77.99
69402;BME280;56589;51.992;5.924;2024-03-08T00:08:06;101331.16;;;2.26;78.20
69402;BME280;56589;51.992;5.924;2024-03-08T00:10:35;101332.88;;;2.26;77.94
69402;BME280;56589;51.992;5.924;2024-03-08T00:13:01;101331.19;;;2.23;77.84
69402;BME280;56589;51.992;5.924;2024-03-08T00:15:27;101316.56;;;2.20;77.64
69402;BME280;56589;51.992;5.924;2024-03-08T00:17:52;101326.94;;;2.20;78.06
69402;BME280;56589;51.992;5.924;2024-03-08T00:20:18;101325.25;;;2.19;77.60
69402;BME280;56589;51.992;5.924;2024-03-08T00:22:44;101319.25;;;2.16;77.75
69402;BME280;56589;51.992;5.924;2024-03-08T00:25:10;101322.75;;;2.15;77.56
69402;BME280;56589;51.992;5.924;2024-03-08T00:27:38;101313.31;;;2.11;77.69
69402;BME280;56589;51.992;5.924;2024-03-08T00:30:06;101319.34;;;2.11;77.34
69402;BME280;56589;51.992;5.924;2024-03-08T00:32:32;101312.47;;;2.10;77.32
69402;BME280;56589;51.992;5.924;2024-03-08T00:34:58;101310.75;;;2.09;77.24
69402;BME280;56589;51.992;5.924;2024-03-08T00:37:24;101309.88;;;2.10;77.05
69402;BME280;56589;51.992;5.924;2024-03-08T00:39:51;101307.38;;;2.06;77.31
69402;BME280;56589;51.992;5.924;2024-03-08T00:42:17;101311.72;;;2.04;77.37
69402;BME280;56589;51.992;5.924;2024-03-08T00:44:49;101304.00;;;2.02;76.69
69402;BME280;56589;51.992;5.924;2024-03-08T00:47:15;101304.06;;;1.99;77.09
69402;BME280;56589;51.992;5.924;2024-03-08T00:49:41;101304.09;;;1.97;76.59
69402;BME280;56589;51.992;5.924;2024-03-08T00:52:07;101292.03;;;1.96;76.73
69402;BME280;56589;51.992;5.924;2024-03-08T00:54:33;101299.75;;;1.98;76.92
69402;BME280;56589;51.992;5.924;2024-03-08T00:57:00;101300.66;;;1.97;76.62
69402;BME280;56589;51.992;5.924;2024-03-08T00:59:26;101288.63;;;1.93;76.73
69402;BME280;56589;51.992;5.924;2024-03-08T01:01:56;101278.38;;;1.90;76.80
69402;BME280;56589;51.992;5.924;2024-03-08T01:04:22;101280.09;;;1.88;76.37
69402;BME280;56589;51.992;5.924;2024-03-08T01:06:51;101274.16;;;1.84;76.35
69402;BME280;56589;51.992;5.924;2024-03-08T01:09:16;101268.13;;;1.84;76.16
69402;BME280;56589;51.992;5.924;2024-03-08T01:11:42;101269.88;;;1.82;76.14
69402;BME280;56589;51.992;5.924;2024-03-08T01:14:08;101264.78;;;1.79;75.53
69402;BME280;56589;51.992;5.924;2024-03-08T01:16:34;101263.06;;;1.78;76.20
69402;BME280;56589;51.992;5.924;2024-03-08T01:19:03;101259.59;;;1.79;76.05
69402;BME280;56589;51.992;5.924;2024-03-08T01:21:29;101257.00;;;1.79;75.40
69402;BME280;56589;51.992;5.924;2024-03-08T01:23:55;101256.19;;;1.77;75.31
69402;BME280;56589;51.992;5.924;2024-03-08T01:26:21;101245.84;;;1.77;75.25
69402;BME280;56589;51.992;5.924;2024-03-08T01:28:47;101251.03;;;1.77;74.82
69402;BME280;56589;51.992;5.924;2024-03-08T01:31:13;101243.25;;;1.75;74.84
69402;BME280;56589;51.992;5.924;2024-03-08T01:33:38;101231.22;;;1.74;74.77
69402;BME280;56589;51.992;5.924;2024-03-08T01:36:07;101233.88;;;1.71;74.54
69402;BME280;56589;51.992;5.924;2024-03-08T01:38:33;101223.56;;;1.68;74.31
69402;BME280;56589;51.992;5.924;2024-03-08T01:40:59;101227.88;;;1.67;74.19
69402;BME280;56589;51.992;5.924;2024-03-08T01:43:27;101226.19;;;1.66;74.13
69402;BME280;56589;51.992;5.924;2024-03-08T01:45:55;101224.50;;;1.65;74.59
69402;BME280;56589;51.992;5.924;2024-03-08T01:48:23;101226.28;;;1.62;74.14
69402;BME280;56589;51.992;5.924;2024-03-08T01:50:49;101225.50;;;1.58;74.65
69402;BME280;56589;51.992;5.924;2024-03-08T01:53:18;101228.94;;;1.57;74.01
69402;BME280;56589;51.992;5.924;2024-03-08T01:55:46;101225.59;;;1.54;74.54
69402;BME280;56589;51.992;5.924;2024-03-08T01:58:13;101225.63;;;1.51;74.27
69402;BME280;56589;51.992;5.924;2024-03-08T02:00:41;101220.50;;;1.49;74.22
69402;BME280;56589;51.992;5.924;2024-03-08T02:03:09;101215.41;;;1.46;74.32
69402;BME280;56589;51.992;5.924;2024-03-08T02:05:36;101214.59;;;1.42;74.79
69402;BME280;56589;51.992;5.924;2024-03-08T02:08:02;101211.22;;;1.37;74.46
69402;BME280;56589;51.992;5.924;2024-03-08T02:10:31;101210.41;;;1.35;74.71
69402;BME280;56589;51.992;5.924;2024-03-08T02:12:57;101198.44;;;1.30;74.29
69402;BME280;56589;51.992;5.924;2024-03-08T02:15:24;101201.06;;;1.28;74.73
69402;BME280;56589;51.992;5.924;2024-03-08T02:17:50;101203.66;;;1.27;74.74
69402;BME280;56589;51.992;5.924;2024-03-08T02:20:15;101206.28;;;1.25;74.73
69402;BME280;56589;51.992;5.924;2024-03-08T02:22:44;101193.44;;;1.21;74.92
69402;BME280;56589;51.992;5.924;2024-03-08T02:25:11;101196.91;;;1.20;74.91
69402;BME280;56589;51.992;5.924;2024-03-08T02:27:37;101193.56;;;1.16;74.68
69402;BME280;56589;51.992;5.924;2024-03-08T02:30:04;101192.81;;;1.09;75.00
69402;BME280;56589;51.992;5.924;2024-03-08T02:32:30;101185.06;;;1.08;75.15
69402;BME280;56589;51.992;5.924;2024-03-08T02:34:57;101179.16;;;1.03;75.27
69402;BME280;56589;51.992;5.924;2024-03-08T02:37:22;101180.00;;;1.02;75.13
69402;BME280;56589;51.992;5.924;2024-03-08T02:39:51;101180.94;;;0.99;75.05
69402;BME280;56589;51.992;5.924;2024-03-08T02:42:16;101174.09;;;0.95;75.54
69402;BME280;56589;51.992;5.924;2024-03-08T02:44:42;101169.84;;;0.93;75.30
69402;BME280;56589;51.992;5.924;2024-03-08T02:47:08;101159.53;;;0.91;75.61
69402;BME280;56589;51.992;5.924;2024-03-08T02:49:34;101163.91;;;0.87;75.80
69402;BME280;56589;51.992;5.924;2024-03-08T02:52:02;101167.38;;;0.86;75.53
69402;BME280;56589;51.992;5.924;2024-03-08T02:54:28;101161.34;;;0.86;75.86
69402;BME280;56589;51.992;5.924;2024-03-08T02:56:56;101167.41;;;0.85;75.46
69402;BME280;56589;51.992;5.924;2024-03-08T02:59:22;101156.22;;;0.84;75.64
69402;BME280;56589;51.992;5.924;2024-03-08T03:01:48;101155.34;;;0.84;75.30
69402;BME280;56589;51.992;5.924;2024-03-08T03:04:14;101150.16;;;0.84;75.87
69402;BME280;56589;51.992;5.924;2024-03-08T03:06:42;101155.41;;;0.81;75.74
69402;BME280;56589;51.992;5.924;2024-03-08T03:09:07;101156.25;;;0.81;75.42
69402;BME280;56589;51.992;5.924;2024-03-08T03:11:33;101153.75;;;0.78;75.84
69402;BME280;56589;51.992;5.924;2024-03-08T03:14:02;101142.59;;;0.75;75.47
69402;BME280;56589;51.992;5.924;2024-03-08T03:16:28;101143.50;;;0.72;75.73
69402;BME280;56589;51.992;5.924;2024-03-08T03:18:53;101142.63;;;0.72;75.55
69402;BME280;56589;51.992;5.924;2024-03-08T03:21:19;101146.13;;;0.69;75.73
69402;BME280;56589;51.992;5.924;2024-03-08T03:23:48;101132.38;;;0.69;75.80
69402;BME280;56589;51.992;5.924;2024-03-08T03:26:14;101128.97;;;0.67;75.92
69402;BME280;56589;51.992;5.924;2024-03-08T03:28:40;101133.31;;;0.63;75.67
69402;BME280;56589;51.992;5.924;2024-03-08T03:31:08;101135.91;;;0.63;76.22
69402;BME280;56589;51.992;5.924;2024-03-08T03:33:34;101130.78;;;0.61;75.92
69402;BME280;56589;51.992;5.924;2024-03-08T03:36:00;101128.22;;;0.60;76.17
69402;BME280;56589;51.992;5.924;2024-03-08T03:38:26;101128.19;;;0.61;75.88
69402;BME280;56589;51.992;5.924;2024-03-08T03:40:52;101118.75;;;0.60;75.89
69402;BME280;56589;51.992;5.924;2024-03-08T03:43:18;101123.94;;;0.57;75.74
69402;BME280;56589;51.992;5.924;2024-03-08T03:45:43;101130.84;;;0.57;76.25
69402;BME280;56589;51.992;5.924;2024-03-08T03:48:12;101120.50;;;0.57;76.06
69402;BME280;56589;51.992;5.924;2024-03-08T03:50:38;101129.09;;;0.57;76.10
69402;BME280;56589;51.992;5.924;2024-03-08T03:53:04;101123.13;;;0.55;76.03
69402;BME280;56589;51.992;5.924;2024-03-08T03:55:30;101113.66;;;0.56;75.80
69402;BME280;56589;51.992;5.924;2024-03-08T03:57:56;101119.69;;;0.55;76.03
69402;BME280;56589;51.992;5.924;2024-03-08T04:00:22;101124.00;;;0.54;75.97
69402;BME280;56589;51.992;5.924;2024-03-08T04:02:47;101117.19;;;0.50;76.00
69402;BME280;56589;51.992;5.924;2024-03-08T04:05:16;101115.44;;;0.51;76.34
69402;BME280;56589;51.992;5.924;2024-03-08T04:07:42;101114.59;;;0.50;76.19
69402;BME280;56589;51.992;5.924;2024-03-08T04:10:10;101115.47;;;0.49;76.13
69402;BME280;56589;51.992;5.924;2024-03-08T04:12:38;101106.03;;;0.48;75.79
69402;BME280;56589;51.992;5.924;2024-03-08T04:15:05;101111.19;;;0.47;75.96
69402;BME280;56589;51.992;5.924;2024-03-08T04:17:31;101101.78;;;0.44;76.24
69402;BME280;56589;51.992;5.924;2024-03-08T04:19:59;101106.94;;;0.44;76.15
69402;BME280;56589;51.992;5.924;2024-03-08T04:22:28;101100.09;;;0.43;76.27
69402;BME280;56589;51.992;5.924;2024-03-08T04:24:53;101094.09;;;0.40;76.39
69402;BME280;56589;51.992;5.924;2024-03-08T04:27:19;101094.97;;;0.40;76.41
69402;BME280;56589;51.992;5.924;2024-03-08T04:29:45;101095.03;;;0.37;76.39
69402;BME280;56589;51.992;5.924;2024-03-08T04:32:11;101094.19;;;0.37;76.49
69402;BME280;56589;51.992;5.924;2024-03-08T04:34:36;101081.28;;;0.35;76.18
69402;BME280;56589;51.992;5.924;2024-03-08T04:37:03;101089.91;;;0.36;76.39
69402;BME280;56589;51.992;5.924;2024-03-08T04:39:31;101087.31;;;0.36;76.39
69402;BME280;56589;51.992;5.924;2024-03-08T04:42:00;101082.19;;;0.32;76.49
69402;BME280;56589;51.992;5.924;2024-03-08T04:44:28;101082.16;;;0.34;76.33
69402;BME280;56589;51.992;5.924;2024-03-08T04:46:53;101078.78;;;0.30;76.43
69402;BME280;56589;51.992;5.924;2024-03-08T04:49:19;101080.53;;;0.30;76.73
69402;BME280;56589;51.992;5.924;2024-03-08T04:51:45;101074.50;;;0.28;76.53
69402;BME280;56589;51.992;5.924;2024-03-08T04:54:11;101077.13;;;0.26;76.55
69402;BME280;56589;51.992;5.924;2024-03-08T04:56:39;101074.53;;;0.26;76.57
69402;BME280;56589;51.992;5.924;2024-03-08T04:59:05;101071.06;;;0.27;76.71
69402;BME280;56589;51.992;5.924;2024-03-08T05:01:31;101070.19;;;0.28;76.45
69402;BME280;56589;51.992;5.924;2024-03-08T05:03:59;101065.91;;;0.29;76.72
69402;BME280;56589;51.992;5.924;2024-03-08T05:06:25;101067.59;;;0.28;76.77
69402;BME280;56589;51.992;5.924;2024-03-08T05:08:51;101070.22;;;0.27;76.77
69402;BME280;56589;51.992;5.924;2024-03-08T05:11:16;101077.13;;;0.26;76.55
69402;BME280;56589;51.992;5.924;2024-03-08T05:13:45;101065.13;;;0.24;76.76
69402;BME280;56589;51.992;5.924;2024-03-08T05:16:11;101066.88;;;0.23;76.66
69402;BME280;56589;51.992;5.924;2024-03-08T05:18:36;101059.13;;;0.22;76.71
69402;BME280;56589;51.992;5.924;2024-03-08T05:21:02;101071.19;;;0.23;76.68
69402;BME280;56589;51.992;5.924;2024-03-08T05:23:28;101055.69;;;0.23;76.77
69402;BME280;56589;51.992;5.924;2024-03-08T05:25:54;101056.53;;;0.23;76.67
69402;BME280;56589;51.992;5.924;2024-03-08T05:28:19;101060.84;;;0.21;76.58
69402;BME280;56589;51.992;5.924;2024-03-08T05:30:48;101059.13;;;0.22;76.59
69402;BME280;56589;51.992;5.924;2024-03-08T05:33:14;101058.28;;;0.21;76.92
69402;BME280;56589;51.992;5.924;2024-03-08T05:35:40;101055.69;;;0.21;76.75
69402;BME280;56589;51.992;5.924;2024-03-08T05:38:05;101061.75;;;0.20;76.39
69402;BME280;56589;51.992;5.924;2024-03-08T05:40:31;101056.56;;;0.20;76.38
69402;BME280;56589;51.992;5.924;2024-03-08T05:42:57;101054.00;;;0.20;76.63
69402;BME280;56589;51.992;5.924;2024-03-08T05:45:23;101050.53;;;0.21;76.48
69402;BME280;56589;51.992;5.924;2024-03-08T05:47:51;101048.78;;;0.22;76.62
69402;BME280;56589;51.992;5.924;2024-03-08T05:50:17;101046.25;;;0.20;76.80
69402;BME280;56589;51.992;5.924;2024-03-08T05:52:43;101039.41;;;0.18;76.88
69402;BME280;56589;51.992;5.924;2024-03-08T05:55:09;101053.22;;;0.17;76.69
69402;BME280;56589;51.992;5.924;2024-03-08T05:57:35;101039.41;;;0.18;76.85
69402;BME280;56589;51.992;5.924;2024-03-08T06:00:01;101037.69;;;0.18;76.57
69402;BME280;56589;51.992;5.924;2024-03-08T06:02:27;101040.25;;;0.18;76.60
69402;BME280;56589;51.992;5.924;2024-03-08T06:04:55;101042.81;;;0.20;76.63
69402;BME280;56589;51.992;5.924;2024-03-08T06:07:21;101033.38;;;0.19;76.41
69402;BME280;56589;51.992;5.924;2024-03-08T06:09:46;101034.22;;;0.19;76.63
69402;BME280;56589;51.992;5.924;2024-03-08T06:12:12;101044.50;;;0.21;76.57
69402;BME280;56589;51.992;5.924;2024-03-08T06:14:38;101028.22;;;0.19;76.36
69402;BME280;56589;51.992;5.924;2024-03-08T06:17:08;101034.19;;;0.21;76.69
69402;BME280;56589;51.992;5.924;2024-03-08T06:19:34;101028.13;;;0.22;76.59
69402;BME280;56589;51.992;5.924;2024-03-08T06:22:03;101028.97;;;0.22;76.43
69402;BME280;56589;51.992;5.924;2024-03-08T06:24:29;101030.66;;;0.26;76.50
69402;BME280;56589;51.992;5.924;2024-03-08T06:26:55;101023.75;;;0.27;76.32
69402;BME280;56589;51.992;5.924;2024-03-08T06:29:23;101028.00;;;0.31;76.44
69402;BME280;56589;51.992;5.924;2024-03-08T06:31:49;101025.25;;;0.39;76.34
69402;BME280;56589;51.992;5.924;2024-03-08T06:34:15;101023.38;;;0.47;75.89
69402;BME280;56589;51.992;5.924;2024-03-08T06:36:41;101024.97;;;0.55;76.14
69402;BME280;56589;51.992;5.924;2024-03-08T06:39:12;101020.56;;;0.59;75.82
69402;BME280;56589;51.992;5.924;2024-03-08T06:41:38;101021.34;;;0.64;75.76
69402;BME280;56589;51.992;5.924;2024-03-08T06:44:04;101020.44;;;0.65;75.46
69402;BME280;56589;51.992;5.924;2024-03-08T06:46:31;101029.94;;;0.66;75.22
69402;BME280;56589;51.992;5.924;2024-03-08T06:48:56;101026.38;;;0.70;75.06
69402;BME280;56589;51.992;5.924;2024-03-08T06:51:22;101020.38;;;0.70;74.61
69402;BME280;56589;51.992;5.924;2024-03-08T06:53:50;101016.84;;;0.74;75.00
69402;BME280;56589;51.992;5.924;2024-03-08T06:56:18;101015.88;;;0.79;75.23
69402;BME280;56589;51.992;5.924;2024-03-08T06:58:44;101014.91;;;0.85;74.96
69402;BME280;56589;51.992;5.924;2024-03-08T07:01:10;101019.06;;;0.92;75.08
69402;BME280;56589;51.992;5.924;2024-03-08T07:03:36;101013.81;;;0.95;74.48
69402;BME280;56589;51.992;5.924;2024-03-08T07:06:04;101018.09;;;0.98;74.04
69402;BME280;56589;51.992;5.924;2024-03-08T07:08:30;101023.13;;;1.02;74.51
69402;BME280;56589;51.992;5.924;2024-03-08T07:10:56;101024.81;;;1.05;74.12
69402;BME280;56589;51.992;5.924;2024-03-08T07:13:24;101014.31;;;1.12;74.45
69402;BME280;56589;51.992;5.924;2024-03-08T07:15:50;101022.75;;;1.21;74.38
69402;BME280;56589;51.992;5.924;2024-03-08T07:18:18;101012.41;;;1.22;73.63
69402;BME280;56589;51.992;5.924;2024-03-08T07:20:44;101018.41;;;1.23;73.16
69402;BME280;56589;51.992;5.924;2024-03-08T07:23:10;101019.22;;;1.25;73.79
69402;BME280;56589;51.992;5.924;2024-03-08T07:25:36;101022.59;;;1.28;73.74
69402;BME280;56589;51.992;5.924;2024-03-08T07:28:03;101014.75;;;1.31;73.52
69402;BME280;56589;51.992;5.924;2024-03-08T07:30:32;100999.94;;;1.38;73.41
69402;BME280;56589;51.992;5.924;2024-03-08T07:32:57;101012.75;;;1.46;73.84
69402;BME280;56589;51.992;5.924;2024-03-08T07:35:23;101006.53;;;1.53;73.59
69402;BME280;56589;51.992;5.924;2024-03-08T07:37:49;100998.63;;;1.59;72.84
69402;BME280;56589;51.992;5.924;2024-03-08T07:40:15;101000.22;;;1.63;73.37
69402;BME280;56589;51.992;5.924;2024-03-08T07:42:41;101000.09;;;1.69;72.66
69402;BME280;56589;51.992;5.924;2024-03-08T07:45:08;100988.84;;;1.70;72.74
69402;BME280;56589;51.992;5.924;2024-03-08T07:47:37;100990.53;;;1.73;71.89
69402;BME280;56589;51.992;5.924;2024-03-08T07:50:04;100993.88;;;1.76;72.13
69402;BME280;56589;51.992;5.924;2024-03-08T07:52:31;100987.75;;;1.80;72.20
69402;BME280;56589;51.992;5.924;2024-03-08T07:54:56;100987.69;;;1.83;71.96
69402;BME280;56589;51.992;5.924;2024-03-08T07:57:22;100982.38;;;1.88;71.81
69402;BME280;56589;51.992;5.924;2024-03-08T07:59:48;100978.91;;;1.89;71.63
69402;BME280;56589;51.992;5.924;2024-03-08T08:02:13;100979.72;;;1.91;71.54
69402;BME280;56589;51.992;5.924;2024-03-08T08:04:45;100979.63;;;1.94;71.32
69402;BME280;56589;51.992;5.924;2024-03-08T08:07:11;100977.03;;;1.95;71.17
69402;BME280;56589;51.992;5.924;2024-03-08T08:09:36;100972.53;;;2.01;71.55
69402;BME280;56589;51.992;5.924;2024-03-08T08:12:03;100978.44;;;2.07;71.56
69402;BME280;56589;51.992;5.924;2024-03-08T08:14:29;100973.91;;;2.15;70.80
69402;BME280;56589;51.992;5.924;2024-03-08T08:16:55;100971.19;;;2.20;71.52
69402;BME280;56589;51.992;5.924;2024-03-08T08:19:21;100958.94;;;2.25;71.11
69402;BME280;56589;51.992;5.924;2024-03-08T08:21:49;100977.81;;;2.32;71.12
69402;BME280;56589;51.992;5.924;2024-03-08T08:24:15;100965.53;;;2.38;71.13
69402;BME280;56589;51.992;5.924;2024-03-08T08:26:41;100954.22;;;2.41;70.69
69402;BME280;56589;51.992;5.924;2024-03-08T08:29:07;100961.88;;;2.45;71.15
69402;BME280;56589;51.992;5.924;2024-03-08T08:31:33;100951.22;;;2.55;71.04
69402;BME280;56589;51.992;5.924;2024-03-08T08:33:58;100944.97;;;2.62;71.22
69402;BME280;56589;51.992;5.924;2024-03-08T08:36:24;100943.97;;;2.67;70.73
69402;BME280;56589;51.992;5.924;2024-03-08T08:38:53;100936.94;;;2.71;69.76
69402;BME280;56589;51.992;5.924;2024-03-08T08:41:18;100946.28;;;2.76;70.81
69402;BME280;56589;51.992;5.924;2024-03-08T08:43:44;100947.00;;;2.82;70.10
69402;BME280;56589;51.992;5.924;2024-03-08T08:46:10;100939.13;;;2.85;69.78
69402;BME280;56589;51.992;5.924;2024-03-08T08:48:36;100934.59;;;2.91;70.00
69402;BME280;56589;51.992;5.924;2024-03-08T08:51:02;100935.25;;;2.99;70.42
69402;BME280;56589;51.992;5.924;2024-03-08T08:53:28;100941.78;;;3.11;70.35
69402;BME280;56589;51.992;5.924;2024-03-08T08:55:56;100921.53;;;3.22;70.35
69402;BME280;56589;51.992;5.924;2024-03-08T08:58:22;100913.38;;;3.35;69.67
69402;BME280;56589;51.992;5.924;2024-03-08T09:00:48;100914.03;;;3.41;68.86
69402;BME280;56589;51.992;5.924;2024-03-08T09:03:13;100909.59;;;3.45;68.42
69402;BME280;56589;51.992;5.924;2024-03-08T09:05:39;100914.66;;;3.48;69.23
69402;BME280;56589;51.992;5.924;2024-03-08T09:08:06;100906.84;;;3.49;67.30
69402;BME280;56589;51.992;5.924;2024-03-08T09:10:32;100903.28;;;3.52;68.70
69402;BME280;56589;51.992;5.924;2024-03-08T09:13:00;100902.16;;;3.61;68.94
69402;BME280;56589;51.992;5.924;2024-03-08T09:15:26;100897.34;;;3.75;69.23
69402;BME280;56589;51.992;5.924;2024-03-08T09:17:52;100884.72;;;3.89;69.44
69402;BME280;56589;51.992;5.924;2024-03-08T09:20:18;100891.31;;;3.99;68.57
69402;BME280;56589;51.992;5.924;2024-03-08T09:22:44;100886.66;;;4.07;68.28
69402;BME280;56589;51.992;5.924;2024-03-08T09:25:10;100885.53;;;4.15;68.52
69402;BME280;56589;51.992;5.924;2024-03-08T09:27:35;100884.44;;;4.22;67.59
69402;BME280;56589;51.992;5.924;2024-03-08T09:30:05;100884.19;;;4.28;66.59
69402;BME280;56589;51.992;5.924;2024-03-08T09:32:31;100875.53;;;4.29;66.45
69402;BME280;56589;51.992;5.924;2024-03-08T09:34:57;100878.75;;;4.35;66.94
69402;BME280;56589;51.992;5.924;2024-03-08T09:37:23;100866.59;;;4.36;66.35
69402;BME280;56589;51.992;5.924;2024-03-08T09:39:49;100860.41;;;4.38;66.01
69402;BME280;56589;51.992;5.924;2024-03-08T09:42:15;100848.88;;;4.46;66.40
69402;BME280;56589;51.992;5.924;2024-03-08T09:44:44;100846.72;;;4.57;66.97
69402;BME280;56589;51.992;5.924;2024-03-08T09:47:13;100858.47;;;4.67;64.45
69402;BME280;56589;51.992;5.924;2024-03-08T09:49:40;100843.88;;;4.63;64.08
69402;BME280;56589;51.992;5.924;2024-03-08T09:52:06;100842.13;;;4.63;63.56
69402;BME280;56589;51.992;5.924;2024-03-08T09:54:33;100848.06;;;4.67;64.40
69402;BME280;56589;51.992;5.924;2024-03-08T09:56:59;100828.63;;;4.77;65.12
69402;BME280;56589;51.992;5.924;2024-03-08T09:59:25;100838.66;;;4.86;63.64
69402;BME280;56589;51.992;5.924;2024-03-08T10:01:51;100826.34;;;4.91;64.03
69402;BME280;56589;51.992;5.924;2024-03-08T10:04:19;100827.69;;;5.02;64.86
69402;BME280;56589;51.992;5.924;2024-03-08T10:06:45;100821.00;;;5.16;65.54
69402;BME280;56589;51.992;5.924;2024-03-08T10:09:11;100814.25;;;5.33;64.75
69402;BME280;56589;51.992;5.924;2024-03-08T10:11:37;100822.50;;;5.42;64.93
69402;BME280;56589;51.992;5.924;2024-03-08T10:14:03;100822.75;;;5.57;63.77
69402;BME280;56589;51.992;5.924;2024-03-08T10:16:30;100823.94;;;5.70;64.24
69402;BME280;56589;51.992;5.924;2024-03-08T10:18:56;100815.22;;;5.71;62.68
69402;BME280;56589;51.992;5.924;2024-03-08T10:21:25;100805.28;;;5.79;62.75
69402;BME280;56589;51.992;5.924;2024-03-08T10:23:50;100816.88;;;5.92;63.21
69402;BME280;56589;51.992;5.924;2024-03-08T10:26:17;100804.41;;;5.99;62.22
69402;BME280;56589;51.992;5.924;2024-03-08T10:28:44;100803.25;;;6.06;63.07
69402;BME280;56589;51.992;5.924;2024-03-08T10:31:11;100793.22;;;6.16;61.49
69402;BME280;56589;51.992;5.924;2024-03-08T10:33:37;100792.75;;;6.26;62.82
69402;BME280;56589;51.992;5.924;2024-03-08T10:36:06;100787.88;;;6.38;61.40
69402;BME280;56589;51.992;5.924;2024-03-08T10:38:36;100774.56;;;6.44;61.25
69402;BME280;56589;51.992;5.924;2024-03-08T10:41:05;100774.09;;;6.53;62.21
69402;BME280;56589;51.992;5.924;2024-03-08T10:43:34;100768.31;;;6.65;61.13
69402;BME280;56589;51.992;5.924;2024-03-08T10:46:30;100778.22;;;6.76;60.62
69402;BME280;56589;51.992;5.924;2024-03-08T10:49:04;100768.34;;;6.82;60.82
69402;BME280;56589;51.992;5.924;2024-03-08T10:51:38;100754.91;;;6.90;60.38
69402;BME280;56589;51.992;5.924;2024-03-08T10:54:10;100751.78;;;7.01;59.35
69402;BME280;56589;51.992;5.924;2024-03-08T10:56:39;100741.03;;;7.07;59.11
69402;BME280;56589;51.992;5.924;2024-03-08T10:59:05;100748.38;;;7.16;60.06
69402;BME280;56589;51.992;5.924;2024-03-08T11:01:32;100737.63;;;7.22;59.63
69402;BME280;56589;51.992;5.924;2024-03-08T11:03:58;100745.09;;;7.30;59.22
69402;BME280;56589;51.992;5.924;2024-03-08T11:06:30;100738.09;;;7.30;57.23
69402;BME280;56589;51.992;5.924;2024-03-08T11:12:23;100703.53;;;7.43;57.42
69402;BME280;56589;51.992;5.924;2024-03-08T11:14:51;100702.06;;;7.54;58.69
69402;BME280;56589;51.992;5.924;2024-03-08T11:17:21;100710.75;;;7.71;58.01
69402;BME280;56589;51.992;5.924;2024-03-08T11:19:51;100697.31;;;7.78;58.44
69402;BME280;56589;51.992;5.924;2024-03-08T11:22:21;100705.66;;;7.85;57.42
69402;BME280;56589;51.992;5.924;2024-03-08T11:24:51;100691.41;;;7.91;56.69
69402;BME280;56589;51.992;5.924;2024-03-08T11:27:16;100689.91;;;8.02;57.07
69402;BME280;56589;51.992;5.924;2024-03-08T11:29:44;100686.56;;;8.14;57.15
69402;BME280;56589;51.992;5.924;2024-03-08T11:32:12;100686.56;;;8.30;56.58
69402;BME280;56589;51.992;5.924;2024-03-08T11:34:42;100675.59;;;8.39;56.12
69402;BME280;56589;51.992;5.924;2024-03-08T11:37:12;100668.25;;;8.46;56.14
69402;BME280;56589;51.992;5.924;2024-03-08T11:39:39;100666.53;;;8.45;54.93
69402;BME280;56589;51.992;5.924;2024-03-08T11:42:08;100664.84;;;8.44;52.92
69402;BME280;56589;51.992;5.924;2024-03-08T11:44:34;100665.97;;;8.40;52.98
69402;BME280;56589;51.992;5.924;2024-03-08T11:47:00;100668.59;;;8.40;52.70
69402;BME280;56589;51.992;5.924;2024-03-08T11:49:25;100658.13;;;8.40;51.92
69402;BME280;56589;51.992;5.924;2024-03-08T11:51:56;100652.81;;;8.41;53.03
69402;BME280;56589;51.992;5.924;2024-03-08T11:54:22;100647.84;;;8.37;51.95
69402;BME280;56589;51.992;5.924;2024-03-08T11:56:51;100650.34;;;8.38;52.49
69402;BME280;56589;51.992;5.924;2024-03-08T11:59:22;100639.63;;;8.43;51.86
69402;BME280;56589;51.992;5.924;2024-03-08T12:02:01;100647.63;;;8.56;52.13
69402;BME280;56589;51.992;5.924;2024-03-08T12:04:29;100637.00;;;8.59;51.13
69402;BME280;56589;51.992;5.924;2024-03-08T12:06:55;100646.16;;;8.66;52.19
69402;BME280;56589;51.992;5.924;2024-03-08T12:09:22;100636.28;;;8.71;49.24
69402;BME280;56589;51.992;5.924;2024-03-08T12:11:48;100640.66;;;8.71;50.44
69402;BME280;56589;51.992;5.924;2024-03-08T12:14:14;100634.78;;;8.81;50.54
69402;BME280;56589;51.992;5.924;2024-03-08T12:16:44;100631.16;;;8.84;50.96
69402;BME280;56589;51.992;5.924;2024-03-08T12:19:10;100625.91;;;8.84;50.12
69402;BME280;56589;51.992;5.924;2024-03-08T12:21:38;100622.81;;;8.77;49.46
69402;BME280;56589;51.992;5.924;2024-03-08T12:24:06;100621.22;;;8.75;48.86
69402;BME280;56589;51.992;5.924;2024-03-08T12:26:33;100616.06;;;8.73;49.06
69402;BME280;56589;51.992;5.924;2024-03-08T12:29:16;100615.44;;;8.84;49.61
69402;BME280;56589;51.992;5.924;2024-03-08T12:31:47;100607.22;;;8.90;49.41
69402;BME280;56589;51.992;5.924;2024-03-08T12:34:13;100596.38;;;8.96;49.48
69402;BME280;56589;51.992;5.924;2024-03-08T12:36:44;100600.09;;;8.92;47.17
69402;BME280;56589;51.992;5.924;2024-03-08T12:39:11;100593.66;;;8.83;48.22
69402;BME280;56589;51.992;5.924;2024-03-08T12:41:39;100583.19;;;8.83;47.03
69402;BME280;56589;51.992;5.924;2024-03-08T12:44:05;100580.56;;;8.83;49.16
69402;BME280;56589;51.992;5.924;2024-03-08T12:46:31;100587.75;;;8.94;49.28
69402;BME280;56589;51.992;5.924;2024-03-08T12:48:59;100580.09;;;8.91;48.17
69402;BME280;56589;51.992;5.924;2024-03-08T12:51:25;100565.34;;;8.90;48.75
69402;BME280;56589;51.992;5.924;2024-03-08T12:53:51;100563.09;;;8.84;48.79
69402;BME280;56589;51.992;5.924;2024-03-08T12:56:29;100574.75;;;8.78;47.98
69402;BME280;56589;51.992;5.924;2024-03-08T12:58:58;100571.31;;;8.78;48.79
69402;BME280;56589;51.992;5.924;2024-03-08T13:01:24;100565.88;;;8.81;48.46